sensor_id;sensor_type;location;lat;lon;timestamp;P1;durP1;ratioP1;P2;durP2;ratioP2
31920;SDS011;66485;52.128;4.436;2023-03-19T00:01:52;1.20;;;0.90;;
31920;SDS011;66485;52.128;4.436;2023-03-19T00:04:18;2.20;;;0.93;;
31920;SDS011;66485;52.128;4.436;2023-03-19T00:06:43;1.60;;;0.90;;
31920;SDS011;66485;52.128;4.436;2023-03-19T00:09:09;2.15;;;0.90;;
31920;SDS011;66485;52.128;4.436;2023-03-19T00:11:35;1.50;;;0.75;;
31920;SDS011;66485;52.128;4.436;2023-03-19T00:14:00;1.20;;;0.80;;
31920;SDS011;66485;52.128;4.436;2023-03-19T00:16:25;0.98;;;0.60;;
31920;SDS011;66485;52.128;4.436;2023-03-19T00:18:51;1.50;;;0.90;;
31920;SDS011;66485;52.128;4.436;2023-03-19T00:21:16;1.35;;;0.80;;
31920;SDS011;66485;52.128;4.436;2023-03-19T00:23:41;2.00;;;1.00;;
31920;SDS011;66485;52.128;4.436;2023-03-19T00:26:06;2.45;;;0.70;;
31920;SDS011;66485;52.128;4.436;2023-03-19T00:28:32;1.48;;;0.90;;
31920;SDS011;66485;52.128;4.436;2023-03-19T00:31:05;1.25;;;0.77;;
31920;SDS011;66485;52.128;4.436;2023-03-19T00:33:37;1.40;;;0.60;;
31920;SDS011;66485;52.128;4.436;2023-03-19T00:36:03;1.05;;;0.65;;
31920;SDS011;66485;52.128;4.436;2023-03-19T00:38:31;1.52;;;0.98;;
31920;SDS011;66485;52.128;4.436;2023-03-19T00:40:56;2.10;;;0.90;;
31920;SDS011;66485;52.128;4.436;2023-03-19T00:43:22;1.50;;;0.82;;
31920;SDS011;66485;52.128;4.436;2023-03-19T00:45:48;1.45;;;0.88;;
31920;SDS011;66485;52.128;4.436;2023-03-19T00:48:13;1.50;;;0.70;;
31920;SDS011;66485;52.128;4.436;2023-03-19T00:50:38;1.30;;;0.80;;
31920;SDS011;66485;52.128;4.436;2023-03-19T00:53:04;1.40;;;0.90;;
31920;SDS011;66485;52.128;4.436;2023-03-19T00:55:29;1.73;;;0.98;;
31920;SDS011;66485;52.128;4.436;2023-03-19T00:57:55;1.88;;;1.00;;
31920;SDS011;66485;52.128;4.436;2023-03-19T01:00:20;1.50;;;0.80;;
31920;SDS011;66485;52.128;4.436;2023-03-19T01:02:46;1.40;;;0.90;;
31920;SDS011;66485;52.128;4.436;2023-03-19T01:05:11;1.88;;;0.90;;
31920;SDS011;66485;52.128;4.436;2023-03-19T01:07:37;0.98;;;0.75;;
31920;SDS011;66485;52.128;4.436;2023-03-19T01:10:02;1.70;;;0.85;;
31920;SDS011;66485;52.128;4.436;2023-03-19T01:12:28;1.58;;;0.90;;
31920;SDS011;66485;52.128;4.436;2023-03-19T01:14:54;1.75;;;1.05;;
31920;SDS011;66485;52.128;4.436;2023-03-19T01:17:19;1.40;;;0.95;;
31920;SDS011;66485;52.128;4.436;2023-03-19T01:19:45;1.40;;;0.85;;
31920;SDS011;66485;52.128;4.436;2023-03-19T01:22:11;2.22;;;1.17;;
31920;SDS011;66485;52.128;4.436;2023-03-19T01:24:38;1.85;;;1.00;;
31920;SDS011;66485;52.128;4.436;2023-03-19T01:27:03;1.60;;;1.00;;
31920;SDS011;66485;52.128;4.436;2023-03-19T01:29:28;1.42;;;0.82;;
31920;SDS011;66485;52.128;4.436;2023-03-19T01:31:54;1.48;;;1.00;;
31920;SDS011;66485;52.128;4.436;2023-03-19T01:34:20;2.33;;;1.13;;
31920;SDS011;66485;52.128;4.436;2023-03-19T01:36:45;1.90;;;1.00;;
31920;SDS011;66485;52.128;4.436;2023-03-19T01:39:10;2.00;;;1.00;;
31920;SDS011;66485;52.128;4.436;2023-03-19T01:41:36;1.40;;;1.00;;
31920;SDS011;66485;52.128;4.436;2023-03-19T01:44:01;1.38;;;0.80;;
31920;SDS011;66485;52.128;4.436;2023-03-19T01:46:33;1.13;;;0.77;;
31920;SDS011;66485;52.128;4.436;2023-03-19T01:49:02;1.38;;;0.90;;
31920;SDS011;66485;52.128;4.436;2023-03-19T01:51:34;1.30;;;0.80;;
31920;SDS011;66485;52.128;4.436;2023-03-19T01:54:07;2.13;;;0.95;;
31920;SDS011;66485;52.128;4.436;2023-03-19T01:56:39;2.15;;;0.98;;
31920;SDS011;66485;52.128;4.436;2023-03-19T01:59:11;1.40;;;0.73;;
31920;SDS011;66485;52.128;4.436;2023-03-19T02:01:41;1.63;;;0.88;;
31920;SDS011;66485;52.128;4.436;2023-03-19T02:04:11;1.50;;;0.80;;
31920;SDS011;66485;52.128;4.436;2023-03-19T02:06:38;1.85;;;1.00;;
31920;SDS011;66485;52.128;4.436;2023-03-19T02:09:04;1.38;;;0.80;;
31920;SDS011;66485;52.128;4.436;2023-03-19T02:11:30;1.42;;;0.88;;
31920;SDS011;66485;52.128;4.436;2023-03-19T02:13:56;1.27;;;0.70;;
31920;SDS011;66485;52.128;4.436;2023-03-19T02:16:22;1.40;;;0.80;;
31920;SDS011;66485;52.128;4.436;2023-03-19T02:18:47;2.80;;;1.00;;
31920;SDS011;66485;52.128;4.436;2023-03-19T02:21:16;1.95;;;0.90;;
31920;SDS011;66485;52.128;4.436;2023-03-19T02:24:05;1.60;;;1.00;;
31920;SDS011;66485;52.128;4.436;2023-03-19T02:29:01;1.30;;;0.88;;
31920;SDS011;66485;52.128;4.436;2023-03-19T02:31:28;1.55;;;0.93;;
31920;SDS011;66485;52.128;4.436;2023-03-19T02:33:57;1.83;;;0.93;;
31920;SDS011;66485;52.128;4.436;2023-03-19T02:36:23;1.60;;;1.00;;
31920;SDS011;66485;52.128;4.436;2023-03-19T02:39:11;1.15;;;0.80;;
31920;SDS011;66485;52.128;4.436;2023-03-19T02:41:42;1.45;;;0.80;;
31920;SDS011;66485;52.128;4.436;2023-03-19T02:44:08;1.05;;;0.75;;
31920;SDS011;66485;52.128;4.436;2023-03-19T02:46:35;1.45;;;0.90;;
31920;SDS011;66485;52.128;4.436;2023-03-19T02:49:01;1.30;;;0.88;;
31920;SDS011;66485;52.128;4.436;2023-03-19T02:51:26;1.20;;;0.90;;
31920;SDS011;66485;52.128;4.436;2023-03-19T02:53:51;1.73;;;0.70;;
31920;SDS011;66485;52.128;4.436;2023-03-19T02:56:16;1.92;;;0.90;;
31920;SDS011;66485;52.128;4.436;2023-03-19T02:58:42;1.35;;;0.90;;
31920;SDS011;66485;52.128;4.436;2023-03-19T03:01:07;1.30;;;0.80;;
31920;SDS011;66485;52.128;4.436;2023-03-19T03:03:32;1.77;;;1.00;;
31920;SDS011;66485;52.128;4.436;2023-03-19T03:05:58;1.15;;;0.70;;
31920;SDS011;66485;52.128;4.436;2023-03-19T03:08:23;1.50;;;0.90;;
31920;SDS011;66485;52.128;4.436;2023-03-19T03:10:48;1.30;;;0.80;;
31920;SDS011;66485;52.128;4.436;2023-03-19T03:13:14;1.83;;;1.00;;
31920;SDS011;66485;52.128;4.436;2023-03-19T03:15:40;1.60;;;0.93;;
31920;SDS011;66485;52.128;4.436;2023-03-19T03:18:05;1.80;;;1.00;;
31920;SDS011;66485;52.128;4.436;2023-03-19T03:20:31;2.22;;;1.00;;
31920;SDS011;66485;52.128;4.436;2023-03-19T03:22:57;1.52;;;0.90;;
31920;SDS011;66485;52.128;4.436;2023-03-19T03:25:22;1.75;;;0.90;;
31920;SDS011;66485;52.128;4.436;2023-03-19T03:27:47;1.55;;;1.08;;
31920;SDS011;66485;52.128;4.436;2023-03-19T03:30:13;2.13;;;1.10;;
31920;SDS011;66485;52.128;4.436;2023-03-19T03:32:40;2.60;;;0.82;;
31920;SDS011;66485;52.128;4.436;2023-03-19T03:35:06;1.67;;;1.02;;
31920;SDS011;66485;52.128;4.436;2023-03-19T03:37:32;1.17;;;0.88;;
31920;SDS011;66485;52.128;4.436;2023-03-19T03:39:57;1.73;;;1.00;;
31920;SDS011;66485;52.128;4.436;2023-03-19T03:42:23;3.10;;;1.10;;
31920;SDS011;66485;52.128;4.436;2023-03-19T03:44:49;2.78;;;1.30;;
31920;SDS011;66485;52.128;4.436;2023-03-19T03:47:14;2.25;;;1.15;;
31920;SDS011;66485;52.128;4.436;2023-03-19T03:49:41;1.27;;;0.90;;
31920;SDS011;66485;52.128;4.436;2023-03-19T03:52:07;1.95;;;1.05;;
31920;SDS011;66485;52.128;4.436;2023-03-19T03:54:33;2.40;;;1.20;;
31920;SDS011;66485;52.128;4.436;2023-03-19T03:56:58;1.70;;;0.82;;
31920;SDS011;66485;52.128;4.436;2023-03-19T03:59:24;1.67;;;1.00;;
31920;SDS011;66485;52.128;4.436;2023-03-19T04:01:49;1.98;;;1.10;;
31920;SDS011;66485;52.128;4.436;2023-03-19T04:04:15;2.38;;;1.10;;
31920;SDS011;66485;52.128;4.436;2023-03-19T04:06:40;1.63;;;1.00;;
31920;SDS011;66485;52.128;4.436;2023-03-19T04:09:06;1.90;;;0.90;;
31920;SDS011;66485;52.128;4.436;2023-03-19T04:11:32;1.40;;;1.00;;
31920;SDS011;66485;52.128;4.436;2023-03-19T04:13:59;1.92;;;1.17;;
31920;SDS011;66485;52.128;4.436;2023-03-19T04:16:26;2.03;;;1.10;;
31920;SDS011;66485;52.128;4.436;2023-03-19T04:18:52;1.80;;;1.23;;
31920;SDS011;66485;52.128;4.436;2023-03-19T04:21:18;1.88;;;1.20;;
31920;SDS011;66485;52.128;4.436;2023-03-19T04:23:43;2.28;;;1.20;;
31920;SDS011;66485;52.128;4.436;2023-03-19T04:26:09;2.30;;;1.13;;
31920;SDS011;66485;52.128;4.436;2023-03-19T04:28:34;2.08;;;1.00;;
31920;SDS011;66485;52.128;4.436;2023-03-19T04:31:04;3.03;;;1.40;;
31920;SDS011;66485;52.128;4.436;2023-03-19T04:33:31;2.22;;;1.40;;
31920;SDS011;66485;52.128;4.436;2023-03-19T04:35:56;2.15;;;1.27;;
31920;SDS011;66485;52.128;4.436;2023-03-19T04:38:23;2.28;;;1.50;;
31920;SDS011;66485;52.128;4.436;2023-03-19T04:40:53;2.47;;;1.35;;
31920;SDS011;66485;52.128;4.436;2023-03-19T04:43:18;1.92;;;1.25;;
31920;SDS011;66485;52.128;4.436;2023-03-19T04:45:44;2.40;;;1.38;;
31920;SDS011;66485;52.128;4.436;2023-03-19T04:48:10;2.60;;;1.40;;
31920;SDS011;66485;52.128;4.436;2023-03-19T04:50:35;1.52;;;1.02;;
31920;SDS011;66485;52.128;4.436;2023-03-19T04:53:01;2.50;;;1.50;;
31920;SDS011;66485;52.128;4.436;2023-03-19T04:55:26;1.67;;;1.00;;
31920;SDS011;66485;52.128;4.436;2023-03-19T04:57:52;3.53;;;1.23;;
31920;SDS011;66485;52.128;4.436;2023-03-19T05:00:17;2.28;;;1.20;;
31920;SDS011;66485;52.128;4.436;2023-03-19T05:02:43;1.77;;;1.20;;
31920;SDS011;66485;52.128;4.436;2023-03-19T05:05:09;2.03;;;1.27;;
31920;SDS011;66485;52.128;4.436;2023-03-19T05:07:36;2.80;;;1.50;;
31920;SDS011;66485;52.128;4.436;2023-03-19T05:10:02;2.45;;;1.45;;
31920;SDS011;66485;52.128;4.436;2023-03-19T05:12:27;1.85;;;1.20;;
31920;SDS011;66485;52.128;4.436;2023-03-19T05:14:53;2.05;;;1.45;;
31920;SDS011;66485;52.128;4.436;2023-03-19T05:17:18;2.83;;;1.35;;
31920;SDS011;66485;52.128;4.436;2023-03-19T05:19:43;2.13;;;1.30;;
31920;SDS011;66485;52.128;4.436;2023-03-19T05:22:09;1.92;;;1.35;;
31920;SDS011;66485;52.128;4.436;2023-03-19T05:24:34;2.20;;;1.40;;
31920;SDS011;66485;52.128;4.436;2023-03-19T05:27:00;2.13;;;1.42;;
31920;SDS011;66485;52.128;4.436;2023-03-19T05:29:26;2.63;;;1.40;;
31920;SDS011;66485;52.128;4.436;2023-03-19T05:31:51;2.58;;;1.40;;
31920;SDS011;66485;52.128;4.436;2023-03-19T05:34:17;2.55;;;1.65;;
31920;SDS011;66485;52.128;4.436;2023-03-19T05:36:42;2.67;;;1.55;;
31920;SDS011;66485;52.128;4.436;2023-03-19T05:39:08;2.33;;;1.50;;
31920;SDS011;66485;52.128;4.436;2023-03-19T05:41:34;2.47;;;1.67;;
31920;SDS011;66485;52.128;4.436;2023-03-19T05:43:59;2.45;;;1.52;;
31920;SDS011;66485;52.128;4.436;2023-03-19T05:46:25;2.70;;;1.60;;
31920;SDS011;66485;52.128;4.436;2023-03-19T05:48:50;2.65;;;1.75;;
31920;SDS011;66485;52.128;4.436;2023-03-19T05:51:15;3.50;;;1.88;;
31920;SDS011;66485;52.128;4.436;2023-03-19T05:53:41;2.53;;;1.77;;
31920;SDS011;66485;52.128;4.436;2023-03-19T05:56:06;2.78;;;1.80;;
31920;SDS011;66485;52.128;4.436;2023-03-19T05:58:32;2.83;;;1.80;;
31920;SDS011;66485;52.128;4.436;2023-03-19T06:00:57;4.10;;;1.90;;
31920;SDS011;66485;52.128;4.436;2023-03-19T06:03:22;2.90;;;1.70;;
31920;SDS011;66485;52.128;4.436;2023-03-19T06:05:48;2.55;;;1.67;;
31920;SDS011;66485;52.128;4.436;2023-03-19T06:08:14;3.00;;;1.90;;
31920;SDS011;66485;52.128;4.436;2023-03-19T06:10:40;3.22;;;1.42;;
31920;SDS011;66485;52.128;4.436;2023-03-19T06:13:05;2.92;;;1.80;;
31920;SDS011;66485;52.128;4.436;2023-03-19T06:15:31;2.92;;;1.83;;
31920;SDS011;66485;52.128;4.436;2023-03-19T06:17:56;2.78;;;1.73;;
31920;SDS011;66485;52.128;4.436;2023-03-19T06:20:22;2.75;;;1.73;;
31920;SDS011;66485;52.128;4.436;2023-03-19T06:22:47;3.42;;;2.25;;
31920;SDS011;66485;52.128;4.436;2023-03-19T06:25:12;2.90;;;1.80;;
31920;SDS011;66485;52.128;4.436;2023-03-19T06:27:38;3.10;;;1.75;;
31920;SDS011;66485;52.128;4.436;2023-03-19T06:30:04;4.32;;;2.10;;
31920;SDS011;66485;52.128;4.436;2023-03-19T06:32:30;3.13;;;1.98;;
31920;SDS011;66485;52.128;4.436;2023-03-19T06:34:55;2.88;;;1.85;;
31920;SDS011;66485;52.128;4.436;2023-03-19T06:37:20;3.50;;;2.00;;
31920;SDS011;66485;52.128;4.436;2023-03-19T06:39:46;3.13;;;2.13;;
31920;SDS011;66485;52.128;4.436;2023-03-19T06:42:12;3.67;;;2.30;;
31920;SDS011;66485;52.128;4.436;2023-03-19T06:44:37;3.97;;;2.25;;
31920;SDS011;66485;52.128;4.436;2023-03-19T06:47:03;3.00;;;1.90;;
31920;SDS011;66485;52.128;4.436;2023-03-19T06:49:29;3.05;;;1.90;;
31920;SDS011;66485;52.128;4.436;2023-03-19T06:51:54;3.80;;;2.17;;
31920;SDS011;66485;52.128;4.436;2023-03-19T06:54:20;4.47;;;1.90;;
31920;SDS011;66485;52.128;4.436;2023-03-19T06:56:45;3.65;;;1.98;;
31920;SDS011;66485;52.128;4.436;2023-03-19T06:59:11;3.17;;;2.00;;
31920;SDS011;66485;52.128;4.436;2023-03-19T07:01:38;3.83;;;2.28;;
31920;SDS011;66485;52.128;4.436;2023-03-19T07:04:04;4.18;;;2.22;;
31920;SDS011;66485;52.128;4.436;2023-03-19T07:06:30;3.75;;;2.20;;
31920;SDS011;66485;52.128;4.436;2023-03-19T07:08:55;3.90;;;2.22;;
31920;SDS011;66485;52.128;4.436;2023-03-19T07:11:21;4.38;;;2.75;;
31920;SDS011;66485;52.128;4.436;2023-03-19T07:13:46;5.00;;;2.78;;
31920;SDS011;66485;52.128;4.436;2023-03-19T07:16:11;4.60;;;2.58;;
31920;SDS011;66485;52.128;4.436;2023-03-19T07:18:36;4.38;;;2.38;;
31920;SDS011;66485;52.128;4.436;2023-03-19T07:21:02;4.38;;;2.47;;
31920;SDS011;66485;52.128;4.436;2023-03-19T07:23:28;4.22;;;2.35;;
31920;SDS011;66485;52.128;4.436;2023-03-19T07:25:53;3.95;;;2.50;;
31920;SDS011;66485;52.128;4.436;2023-03-19T07:28:18;4.32;;;2.63;;
31920;SDS011;66485;52.128;4.436;2023-03-19T07:30:44;5.25;;;2.75;;
31920;SDS011;66485;52.128;4.436;2023-03-19T07:33:10;5.25;;;2.67;;
31920;SDS011;66485;52.128;4.436;2023-03-19T07:35:35;4.45;;;2.90;;
31920;SDS011;66485;52.128;4.436;2023-03-19T07:38:01;5.13;;;2.95;;
31920;SDS011;66485;52.128;4.436;2023-03-19T07:40:26;5.63;;;3.03;;
31920;SDS011;66485;52.128;4.436;2023-03-19T07:42:52;4.72;;;3.00;;
31920;SDS011;66485;52.128;4.436;2023-03-19T07:45:17;4.15;;;2.53;;
31920;SDS011;66485;52.128;4.436;2023-03-19T07:47:43;4.80;;;2.70;;
31920;SDS011;66485;52.128;4.436;2023-03-19T07:50:08;4.93;;;2.80;;
31920;SDS011;66485;52.128;4.436;2023-03-19T07:52:34;5.18;;;2.60;;
31920;SDS011;66485;52.128;4.436;2023-03-19T07:55:00;5.15;;;2.80;;
31920;SDS011;66485;52.128;4.436;2023-03-19T07:57:25;5.15;;;3.15;;
31920;SDS011;66485;52.128;4.436;2023-03-19T07:59:51;4.70;;;2.70;;
31920;SDS011;66485;52.128;4.436;2023-03-19T08:02:16;4.85;;;2.80;;
31920;SDS011;66485;52.128;4.436;2023-03-19T08:04:42;4.32;;;2.67;;
31920;SDS011;66485;52.128;4.436;2023-03-19T08:07:08;5.28;;;3.35;;
31920;SDS011;66485;52.128;4.436;2023-03-19T08:09:37;6.03;;;2.92;;
31920;SDS011;66485;52.128;4.436;2023-03-19T08:12:03;6.75;;;3.25;;
31920;SDS011;66485;52.128;4.436;2023-03-19T08:14:29;5.85;;;2.90;;
31920;SDS011;66485;52.128;4.436;2023-03-19T08:16:54;5.45;;;2.95;;
31920;SDS011;66485;52.128;4.436;2023-03-19T08:19:19;5.65;;;3.03;;
31920;SDS011;66485;52.128;4.436;2023-03-19T08:21:46;5.13;;;3.25;;
31920;SDS011;66485;52.128;4.436;2023-03-19T08:24:11;6.43;;;3.25;;
31920;SDS011;66485;52.128;4.436;2023-03-19T08:26:36;5.53;;;3.30;;
31920;SDS011;66485;52.128;4.436;2023-03-19T08:29:02;5.35;;;2.97;;
31920;SDS011;66485;52.128;4.436;2023-03-19T08:31:28;5.40;;;3.08;;
31920;SDS011;66485;52.128;4.436;2023-03-19T08:33:54;5.45;;;3.10;;
31920;SDS011;66485;52.128;4.436;2023-03-19T08:36:19;5.30;;;3.60;;
31920;SDS011;66485;52.128;4.436;2023-03-19T08:38:45;5.93;;;3.42;;
31920;SDS011;66485;52.128;4.436;2023-03-19T08:41:10;4.75;;;2.88;;
31920;SDS011;66485;52.128;4.436;2023-03-19T08:43:36;6.95;;;3.67;;
31920;SDS011;66485;52.128;4.436;2023-03-19T08:46:02;6.68;;;3.50;;
31920;SDS011;66485;52.128;4.436;2023-03-19T08:48:29;4.78;;;2.72;;
31920;SDS011;66485;52.128;4.436;2023-03-19T08:50:55;7.03;;;3.53;;
31920;SDS011;66485;52.128;4.436;2023-03-19T08:53:22;5.85;;;3.53;;
31920;SDS011;66485;52.128;4.436;2023-03-19T08:55:51;6.97;;;3.35;;
31920;SDS011;66485;52.128;4.436;2023-03-19T08:58:21;5.85;;;3.50;;
31920;SDS011;66485;52.128;4.436;2023-03-19T09:00:47;6.15;;;3.58;;
31920;SDS011;66485;52.128;4.436;2023-03-19T09:03:13;5.53;;;3.20;;
31920;SDS011;66485;52.128;4.436;2023-03-19T09:05:40;7.32;;;3.83;;
31920;SDS011;66485;52.128;4.436;2023-03-19T09:08:05;6.90;;;3.63;;
31920;SDS011;66485;52.128;4.436;2023-03-19T09:10:31;6.13;;;3.45;;
31920;SDS011;66485;52.128;4.436;2023-03-19T09:12:56;6.85;;;3.60;;
31920;SDS011;66485;52.128;4.436;2023-03-19T09:15:22;5.72;;;3.47;;
31920;SDS011;66485;52.128;4.436;2023-03-19T09:17:48;6.20;;;3.70;;
31920;SDS011;66485;52.128;4.436;2023-03-19T09:20:13;6.32;;;3.45;;
31920;SDS011;66485;52.128;4.436;2023-03-19T09:22:39;6.32;;;3.55;;
31920;SDS011;66485;52.128;4.436;2023-03-19T09:25:04;6.18;;;3.45;;
31920;SDS011;66485;52.128;4.436;2023-03-19T09:27:30;7.07;;;3.45;;
31920;SDS011;66485;52.128;4.436;2023-03-19T09:29:56;6.85;;;3.42;;
31920;SDS011;66485;52.128;4.436;2023-03-19T09:32:21;6.20;;;3.22;;
31920;SDS011;66485;52.128;4.436;2023-03-19T09:34:47;6.82;;;3.83;;
31920;SDS011;66485;52.128;4.436;2023-03-19T09:37:12;6.20;;;3.30;;
31920;SDS011;66485;52.128;4.436;2023-03-19T09:39:38;6.18;;;3.33;;
31920;SDS011;66485;52.128;4.436;2023-03-19T09:44:38;4.93;;;2.78;;
31920;SDS011;66485;52.128;4.436;2023-03-19T09:50:00;6.78;;;3.40;;
31920;SDS011;66485;52.128;4.436;2023-03-19T09:52:43;8.07;;;3.42;;
31920;SDS011;66485;52.128;4.436;2023-03-19T09:55:44;6.57;;;3.35;;
31920;SDS011;66485;52.128;4.436;2023-03-19T09:58:13;6.95;;;3.20;;
31920;SDS011;66485;52.128;4.436;2023-03-19T10:00:41;5.75;;;3.03;;
31920;SDS011;66485;52.128;4.436;2023-03-19T10:03:32;7.40;;;3.70;;
31920;SDS011;66485;52.128;4.436;2023-03-19T10:08:57;5.65;;;3.25;;
31920;SDS011;66485;52.128;4.436;2023-03-19T10:17:26;6.75;;;3.90;;
31920;SDS011;66485;52.128;4.436;2023-03-19T10:22:27;8.38;;;3.50;;
31920;SDS011;66485;52.128;4.436;2023-03-19T10:25:02;7.00;;;3.50;;
31920;SDS011;66485;52.128;4.436;2023-03-19T10:27:28;5.68;;;3.45;;
31920;SDS011;66485;52.128;4.436;2023-03-19T10:29:54;6.72;;;3.67;;
31920;SDS011;66485;52.128;4.436;2023-03-19T10:34:53;7.93;;;3.90;;
31920;SDS011;66485;52.128;4.436;2023-03-19T10:37:28;7.28;;;3.90;;
31920;SDS011;66485;52.128;4.436;2023-03-19T10:39:54;6.35;;;3.83;;
31920;SDS011;66485;52.128;4.436;2023-03-19T10:45:04;6.55;;;3.50;;
31920;SDS011;66485;52.128;4.436;2023-03-19T10:47:34;6.28;;;3.50;;
31920;SDS011;66485;52.128;4.436;2023-03-19T10:50:03;6.70;;;3.75;;
31920;SDS011;66485;52.128;4.436;2023-03-19T10:52:32;6.47;;;3.42;;
31920;SDS011;66485;52.128;4.436;2023-03-19T10:55:02;6.03;;;3.63;;
31920;SDS011;66485;52.128;4.436;2023-03-19T10:57:31;6.78;;;3.65;;
31920;SDS011;66485;52.128;4.436;2023-03-19T11:00:00;6.15;;;4.03;;
31920;SDS011;66485;52.128;4.436;2023-03-19T11:02:29;6.20;;;3.60;;
31920;SDS011;66485;52.128;4.436;2023-03-19T11:05:06;6.78;;;3.58;;
31920;SDS011;66485;52.128;4.436;2023-03-19T11:07:33;6.32;;;3.72;;
31920;SDS011;66485;52.128;4.436;2023-03-19T11:10:00;6.07;;;3.30;;
31920;SDS011;66485;52.128;4.436;2023-03-19T11:12:26;5.95;;;3.67;;
31920;SDS011;66485;52.128;4.436;2023-03-19T11:14:56;5.47;;;3.33;;
31920;SDS011;66485;52.128;4.436;2023-03-19T11:19:56;6.18;;;3.80;;
31920;SDS011;66485;52.128;4.436;2023-03-19T11:22:28;5.45;;;3.28;;
31920;SDS011;66485;52.128;4.436;2023-03-19T11:25:02;5.88;;;3.33;;
31920;SDS011;66485;52.128;4.436;2023-03-19T11:27:39;6.70;;;3.92;;
31920;SDS011;66485;52.128;4.436;2023-03-19T11:30:11;5.90;;;3.33;;
31920;SDS011;66485;52.128;4.436;2023-03-19T11:32:53;6.47;;;3.67;;
31920;SDS011;66485;52.128;4.436;2023-03-19T11:35:33;7.43;;;3.40;;
31920;SDS011;66485;52.128;4.436;2023-03-19T11:38:05;6.45;;;3.63;;
31920;SDS011;66485;52.128;4.436;2023-03-19T11:40:45;7.28;;;3.83;;
31920;SDS011;66485;52.128;4.436;2023-03-19T11:51:45;6.53;;;3.80;;
31920;SDS011;66485;52.128;4.436;2023-03-19T11:57:01;5.68;;;3.40;;
31920;SDS011;66485;52.128;4.436;2023-03-19T12:08:02;6.30;;;3.45;;
31920;SDS011;66485;52.128;4.436;2023-03-19T12:10:33;5.97;;;3.42;;
31920;SDS011;66485;52.128;4.436;2023-03-19T12:18:58;6.10;;;3.03;;
31920;SDS011;66485;52.128;4.436;2023-03-19T12:42:36;7.00;;;3.28;;
31920;SDS011;66485;52.128;4.436;2023-03-19T12:45:05;5.25;;;3.33;;
31920;SDS011;66485;52.128;4.436;2023-03-19T12:48:03;5.07;;;3.20;;
31920;SDS011;66485;52.128;4.436;2023-03-19T12:50:32;7.50;;;3.10;;
31920;SDS011;66485;52.128;4.436;2023-03-19T12:53:03;5.32;;;3.15;;
31920;SDS011;66485;52.128;4.436;2023-03-19T13:01:06;5.22;;;2.90;;
31920;SDS011;66485;52.128;4.436;2023-03-19T13:03:53;5.57;;;3.13;;
31920;SDS011;66485;52.128;4.436;2023-03-19T13:06:36;5.13;;;2.80;;
31920;SDS011;66485;52.128;4.436;2023-03-19T13:14:24;4.78;;;3.03;;
31920;SDS011;66485;52.128;4.436;2023-03-19T13:17:02;4.82;;;2.92;;
31920;SDS011;66485;52.128;4.436;2023-03-19T13:19:33;6.03;;;3.30;;
31920;SDS011;66485;52.128;4.436;2023-03-19T13:22:18;5.15;;;3.00;;
31920;SDS011;66485;52.128;4.436;2023-03-19T13:24:46;6.32;;;3.38;;
31920;SDS011;66485;52.128;4.436;2023-03-19T13:27:32;4.85;;;3.10;;
31920;SDS011;66485;52.128;4.436;2023-03-19T13:30:10;4.93;;;2.80;;
31920;SDS011;66485;52.128;4.436;2023-03-19T13:32:43;5.45;;;3.08;;
31920;SDS011;66485;52.128;4.436;2023-03-19T13:38:05;6.18;;;3.70;;
31920;SDS011;66485;52.128;4.436;2023-03-19T13:45:45;5.78;;;3.08;;
31920;SDS011;66485;52.128;4.436;2023-03-19T13:59:34;5.90;;;2.75;;
31920;SDS011;66485;52.128;4.436;2023-03-19T14:02:47;4.45;;;2.72;;
31920;SDS011;66485;52.128;4.436;2023-03-19T14:04:51;4.97;;;2.75;;
31920;SDS011;66485;52.128;4.436;2023-03-19T14:07:27;5.38;;;3.15;;
31920;SDS011;66485;52.128;4.436;2023-03-19T14:17:39;6.80;;;2.90;;
31920;SDS011;66485;52.128;4.436;2023-03-19T14:22:38;5.53;;;3.15;;
31920;SDS011;66485;52.128;4.436;2023-03-19T14:27:43;6.90;;;2.83;;
31920;SDS011;66485;52.128;4.436;2023-03-19T14:30:17;5.32;;;2.60;;
31920;SDS011;66485;52.128;4.436;2023-03-19T14:33:07;4.47;;;2.83;;
31920;SDS011;66485;52.128;4.436;2023-03-19T14:35:44;4.82;;;2.80;;
31920;SDS011;66485;52.128;4.436;2023-03-19T14:38:13;5.35;;;2.83;;
31920;SDS011;66485;52.128;4.436;2023-03-19T14:40:49;5.43;;;2.80;;
31920;SDS011;66485;52.128;4.436;2023-03-19T14:43:18;6.65;;;3.05;;
31920;SDS011;66485;52.128;4.436;2023-03-19T14:55:09;5.97;;;3.30;;
31920;SDS011;66485;52.128;4.436;2023-03-19T14:57:37;5.03;;;2.80;;
31920;SDS011;66485;52.128;4.436;2023-03-19T15:00:04;3.83;;;2.38;;
31920;SDS011;66485;52.128;4.436;2023-03-19T15:05:00;5.75;;;2.78;;
31920;SDS011;66485;52.128;4.436;2023-03-19T15:08:02;3.78;;;2.47;;
31920;SDS011;66485;52.128;4.436;2023-03-19T15:10:26;4.32;;;2.50;;
31920;SDS011;66485;52.128;4.436;2023-03-19T15:13:38;4.47;;;2.58;;
31920;SDS011;66485;52.128;4.436;2023-03-19T15:18:42;5.07;;;2.17;;
31920;SDS011;66485;52.128;4.436;2023-03-19T15:21:07;4.38;;;2.50;;
31920;SDS011;66485;52.128;4.436;2023-03-19T15:23:33;3.92;;;2.30;;
31920;SDS011;66485;52.128;4.436;2023-03-19T15:26:00;4.18;;;2.67;;
31920;SDS011;66485;52.128;4.436;2023-03-19T15:28:43;4.45;;;2.50;;
31920;SDS011;66485;52.128;4.436;2023-03-19T15:31:10;3.78;;;2.22;;
31920;SDS011;66485;52.128;4.436;2023-03-19T15:33:37;4.30;;;2.40;;
31920;SDS011;66485;52.128;4.436;2023-03-19T15:38:36;3.20;;;2.00;;
31920;SDS011;66485;52.128;4.436;2023-03-19T15:41:04;4.30;;;2.17;;
31920;SDS011;66485;52.128;4.436;2023-03-19T15:43:32;5.18;;;2.35;;
31920;SDS011;66485;52.128;4.436;2023-03-19T15:46:00;4.03;;;2.70;;
31920;SDS011;66485;52.128;4.436;2023-03-19T15:48:27;4.72;;;2.50;;
31920;SDS011;66485;52.128;4.436;2023-03-19T15:51:02;4.40;;;2.15;;
31920;SDS011;66485;52.128;4.436;2023-03-19T15:53:31;3.78;;;2.47;;
31920;SDS011;66485;52.128;4.436;2023-03-19T15:55:59;4.38;;;2.75;;
31920;SDS011;66485;52.128;4.436;2023-03-19T15:58:27;4.72;;;2.17;;
31920;SDS011;66485;52.128;4.436;2023-03-19T16:00:56;4.45;;;2.17;;
31920;SDS011;66485;52.128;4.436;2023-03-19T16:03:28;4.47;;;2.10;;
31920;SDS011;66485;52.128;4.436;2023-03-19T16:06:01;4.10;;;2.30;;
31920;SDS011;66485;52.128;4.436;2023-03-19T16:08:29;3.50;;;2.22;;
31920;SDS011;66485;52.128;4.436;2023-03-19T16:11:11;3.78;;;2.05;;
31920;SDS011;66485;52.128;4.436;2023-03-19T16:13:38;4.57;;;2.20;;
31920;SDS011;66485;52.128;4.436;2023-03-19T16:16:18;3.58;;;1.90;;
31920;SDS011;66485;52.128;4.436;2023-03-19T16:18:52;5.50;;;2.40;;
31920;SDS011;66485;52.128;4.436;2023-03-19T16:21:23;4.78;;;2.38;;
31920;SDS011;66485;52.128;4.436;2023-03-19T16:23:54;3.83;;;2.25;;
31920;SDS011;66485;52.128;4.436;2023-03-19T16:26:35;4.07;;;1.88;;
31920;SDS011;66485;52.128;4.436;2023-03-19T16:29:06;4.22;;;2.10;;
31920;SDS011;66485;52.128;4.436;2023-03-19T16:31:40;3.85;;;2.20;;
31920;SDS011;66485;52.128;4.436;2023-03-19T16:34:23;3.92;;;2.08;;
31920;SDS011;66485;52.128;4.436;2023-03-19T16:36:49;4.47;;;2.40;;
31920;SDS011;66485;52.128;4.436;2023-03-19T16:39:23;4.07;;;2.30;;
31920;SDS011;66485;52.128;4.436;2023-03-19T16:44:32;5.00;;;2.72;;
31920;SDS011;66485;52.128;4.436;2023-03-19T16:46:57;3.92;;;2.60;;
31920;SDS011;66485;52.128;4.436;2023-03-19T16:49:22;3.83;;;1.90;;
31920;SDS011;66485;52.128;4.436;2023-03-19T16:51:48;4.43;;;2.40;;
31920;SDS011;66485;52.128;4.436;2023-03-19T16:54:13;4.60;;;2.30;;
31920;SDS011;66485;52.128;4.436;2023-03-19T16:56:39;5.57;;;2.28;;
31920;SDS011;66485;52.128;4.436;2023-03-19T16:59:04;4.00;;;2.42;;
31920;SDS011;66485;52.128;4.436;2023-03-19T17:01:30;4.03;;;2.08;;
31920;SDS011;66485;52.128;4.436;2023-03-19T17:03:56;4.38;;;2.30;;
31920;SDS011;66485;52.128;4.436;2023-03-19T17:06:22;3.58;;;2.00;;
31920;SDS011;66485;52.128;4.436;2023-03-19T17:08:48;4.32;;;2.03;;
31920;SDS011;66485;52.128;4.436;2023-03-19T17:11:21;3.17;;;2.10;;